Annabella — PF3063 — position and weather

sailwx.info

Track history (hours):
 
Tides and Currents Weather Stations Pressure Air Temp Water Temp Dewpoint Dewpoint Depression Visibility Wind Speed Wind Dir Waves Ship Positions

Annabella

Last reported at 2018-Apr-27 05:58 UTC. Time now 2018-May-26 12:07 UTC.
Position N 37°25' W 000°11'.
Warning: this ship's position is 29 days out of date.

Length 20 m; draft 2.6 m.

Type: Sailing vessel. MMSI: 244030764.

Date/timePositionNaut miles runAvg speedWind from/ knotsBaromVisibWave heightAir tempDewpointWater temp
2018-Apr-27 05:58N 37°25' W 000°11'  
2018-Apr-22 21:19N 38°29' W 009°44'3 7.8
2018-Apr-22 20:59N 38°32' W 009°43'3 6.4
2018-Apr-22 20:30N 38°35' W 009°44'4 7.8
2018-Apr-22 20:00N 38°38' W 009°45'4 8.1
2018-Apr-22 19:30N 38°43' W 009°45'4 7.4
2018-Apr-22 19:00N 38°46' W 009°45'4 8.3
2018-Apr-22 18:30N 38°50' W 009°46'4 7.7
2018-Apr-22 18:00N 38°54' W 009°46'4 7.8
2018-Apr-22 17:30N 38°58' W 009°46'3 6.6
2018-Apr-22 17:00N 39°01' W 009°45'4 7.5
2018-Apr-22 16:30N 39°05' W 009°44'4 7.1
2018-Apr-22 15:59N 39°09' W 009°44'4 7.5
2018-Apr-22 15:23N 39°13' W 009°41'7 6.6
2018-Apr-22 14:21N 39°19' W 009°39'  
Track history (hours):
 
Tides and Currents Weather Stations Pressure Air Temp Water Temp Dewpoint Dewpoint Depression Visibility Wind Speed Wind Dir Waves Ship Positions

Annabella

Last reported at 2018-Apr-27 05:58 UTC. Time now 2018-May-26 12:07 UTC.
Position N 37°25' W 000°11'.
Warning: this ship's position is 29 days out of date.

Length 20 m; draft 2.6 m.

Type: Sailing vessel. MMSI: 244030764.

Date/timePositionNaut miles runAvg speedWind from/ knotsBaromVisibWave heightAir tempDewpointWater temp
2018-Apr-27 05:58N 37°25' W 000°11'  
2018-Apr-22 21:19N 38°29' W 009°44'3 7.8
2018-Apr-22 20:59N 38°32' W 009°43'3 6.4
2018-Apr-22 20:30N 38°35' W 009°44'4 7.8
2018-Apr-22 20:00N 38°38' W 009°45'4 8.1
2018-Apr-22 19:30N 38°43' W 009°45'4 7.4
2018-Apr-22 19:00N 38°46' W 009°45'4 8.3
2018-Apr-22 18:30N 38°50' W 009°46'4 7.7
2018-Apr-22 18:00N 38°54' W 009°46'4 7.8
2018-Apr-22 17:30N 38°58' W 009°46'3 6.6
2018-Apr-22 17:00N 39°01' W 009°45'4 7.5
2018-Apr-22 16:30N 39°05' W 009°44'4 7.1
2018-Apr-22 15:59N 39°09' W 009°44'4 7.5
2018-Apr-22 15:23N 39°13' W 009°41'7 6.6
2018-Apr-22 14:21N 39°19' W 009°39'  

Dump ship's entire track history